Weather at Delicias South Airport

Public forecast

Using degrees Celsius for public forecast. Weather courtesy of forecast.io.

Closest aviation weather report (METAR) to Delicias South Airport

Closest report is Frank Pais International Airport, 7.2 nm (13.3 km) NNE. Retrieved 2021/09/26 23:50 UTC (59 minutes ago):

MUHG 262350Z 03009KT 9000 SCT025 28/24 Q1015

Closest aviation forecast (TAF) to Delicias South Airport

Closest forecast is Frank Pais International Airport, 7.2 nm (13.3 km) NNE. Retrieved 2021-09-27 00:03 UTC (46 minutes ago):

TAF MUHG 262300Z 2700/2724 04008KT 9000 SCT030 BECMG 2701/2703 VRB03KT BECMG 2715/2717 03010KT